CDT,Max TemperatureF,Mean TemperatureF,Min TemperatureF,Max Dew PointF,MeanDew PointF,Min DewpointF,Max Humidity, Mean Humidity, Min Humidity, Max Sea Level PressureIn, Mean Sea Level PressureIn, Min Sea Level PressureIn, Max VisibilityMiles, Mean VisibilityMiles, Min VisibilityMiles, Max Wind SpeedMPH, Mean Wind SpeedMPH, Max Gust SpeedMPH,PrecipitationIn, CloudCover, Events, WindDirDegrees
2011-10-1,71,56,42,39,36,34,76,51,29,30.19,30.10,30.00,10,10,10,29,16,37,0.00,0,,179
2011-10-2,82,63,44,46,41,37,76,48,25,30.05,30.01,29.96,10,10,10,15,11,20,0.00,0,,173
2011-10-3,84,68,51,45,44,43,71,46,23,30.06,30.02,30.00,10,10,7,21,11,26,0.00,0,,168
2011-10-4,86,70,55,46,45,43,67,44,25,30.03,29.97,29.89,10,10,10,18,10,23,0.00,0,Rain,163
2011-10-5,89,76,62,48,46,43,59,39,20,29.89,29.86,29.83,10,10,10,26,16,34,0.00,0,,171
2011-10-6,80,71,62,46,43,39,48,36,26,29.89,29.85,29.77,10,10,10,33,19,41,0.00,0,,159
2011-10-7,77,72,66,55,42,27,57,36,17,29.76,29.62,29.52,10,10,5,43,27,56,0.00,0,Rain,187
2011-10-8,64,60,55,48,47,45,77,62,49,30.08,29.90,29.68,10,10,10,22,15,25,0.00,0,,260
2011-10-9,59,50,42,52,45,39,100,78,59,30.30,30.20,30.05,10,10,7,14,6,17,0.00,1,Rain,62
2011-10-10,62,58,55,57,55,52,100,88,72,29.99,29.85,29.76,10,10,4,20,12,24,0.00,2,Rain,173
2011-10-11,71,60,48,54,50,46,94,78,53,29.75,29.72,29.67,10,10,10,14,8,,0.00,0,Rain,169
2011-10-12,68,60,51,55,52,48,94,79,56,29.70,29.66,29.62,10,10,7,16,8,12,0.00,1,Rain-Thunderstorm,220
2011-10-13,57,50,44,50,44,39,94,82,59,29.73,29.70,29.66,10,10,7,18,12,25,0.00,4,,338
2011-10-14,53,44,35,41,37,34,100,78,51,29.82,29.78,29.72,10,10,10,25,11,38,0.00,2,,319
2011-10-15,55,45,35,39,35,32,100,70,41,29.85,29.82,29.78,10,10,7,22,12,31,0.00,1,,298
2011-10-16,53,45,37,37,32,27,87,62,38,29.87,29.82,29.78,10,10,10,36,18,47,0.00,1,,303
2011-10-17,53,44,35,32,29,27,75,60,35,29.98,29.87,29.82,10,10,10,22,15,32,0.00,0,,325
2011-10-18,46,37,28,34,24,16,86,61,31,30.19,30.11,29.99,10,10,10,25,14,30,0.00,0,,348
2011-10-19,44,34,24,30,28,21,93,74,57,30.27,30.22,30.18,10,10,10,12,8,,0.00,0,,23
2011-10-20,50,34,19,34,28,19,100,77,47,30.18,30.08,29.97,10,10,3,7,3,,0.00,0,,161
2011-10-21,59,46,33,37,33,28,81,67,45,30.07,29.95,29.88,10,10,7,16,9,23,0.00,0,,263
2011-10-22,62,45,28,39,35,27,100,70,42,30.10,29.99,29.78,10,9,3,21,7,30,0.00,0,,179
2011-10-23,60,48,35,39,35,30,93,67,36,29.89,29.80,29.75,10,10,4,21,6,26,0.00,0,,296
2011-10-24,51,40,30,36,33,28,93,71,50,30.05,30.00,29.93,10,10,4,7,3,,0.00,1,,74
2011-10-25,51,45,39,34,31,25,81,60,35,30.06,30.03,30.01,10,10,10,9,5,,0.00,1,,93
2011-10-26,50,41,32,37,34,30,93,78,50,30.14,30.09,30.03,10,10,10,12,6,17,0.00,2,,321
2011-10-27,48,36,23,36,29,21,100,81,50,30.05,30.02,29.96,10,8,0,12,4,16,0.00,2,Fog,186
2011-10-28,51,38,26,34,29,25,100,71,38,30.03,30.00,29.95,10,10,10,18,8,23,0.00,1,,288
2011-10-29,51,36,21,30,24,18,100,67,35,30.02,29.93,29.82,10,10,10,21,6,25,0.00,0,,171
2011-10-30,44,38,32,36,32,25,81,73,49,29.97,29.85,29.76,10,10,10,14,8,21,0.00,1,,299
2011-10-31,55,40,24,34,30,21,100,67,41,29.97,29.84,29.70,10,10,10,29,10,34,0.00,1,,188